createdAt,value
2023-02-20T00:02:02.124Z,1.20
2023-02-20T00:04:32.442Z,1.52
2023-02-20T00:07:02.106Z,1.40
2023-02-20T00:09:32.165Z,1.55
2023-02-20T00:12:01.338Z,1.40
2023-02-20T00:14:32.131Z,1.60
2023-02-20T00:17:01.015Z,1.37
2023-02-20T00:19:30.843Z,1.32
2023-02-20T00:22:01.120Z,1.30
2023-02-20T00:24:31.671Z,1.40
2023-02-20T00:27:01.488Z,1.27
2023-02-20T00:29:34.099Z,1.60
2023-02-20T00:32:02.805Z,1.62
2023-02-20T00:34:34.791Z,1.47
2023-02-20T00:37:04.978Z,1.20
2023-02-20T00:39:34.566Z,1.45
2023-02-20T00:42:04.079Z,1.17
2023-02-20T00:44:34.506Z,1.30
2023-02-20T00:47:03.920Z,1.00
2023-02-20T00:49:34.252Z,1.40
2023-02-20T00:52:14.895Z,0.90
2023-02-20T00:54:44.815Z,1.27
2023-02-20T00:57:13.884Z,1.10
2023-02-20T00:59:42.650Z,0.90
2023-02-20T01:02:14.198Z,1.20
2023-02-20T01:04:42.763Z,1.45
2023-02-20T01:07:11.778Z,1.35
2023-02-20T01:09:41.078Z,1.20
2023-02-20T01:12:11.908Z,1.00
2023-02-20T01:14:43.614Z,1.22
2023-02-20T01:17:14.672Z,1.70
2023-02-20T01:19:44.585Z,1.37
2023-02-20T01:22:13.196Z,1.20
2023-02-20T01:24:44.626Z,1.20
2023-02-20T01:27:15.361Z,1.10
2023-02-20T01:29:43.980Z,1.62
2023-02-20T01:32:13.243Z,1.40
2023-02-20T01:34:43.411Z,1.17
2023-02-20T01:37:14.581Z,1.10
2023-02-20T01:39:47.141Z,1.05
2023-02-20T01:42:23.365Z,1.20
2023-02-20T01:44:53.924Z,0.93
2023-02-20T01:47:23.529Z,1.05
2023-02-20T01:49:59.589Z,1.10
2023-02-20T01:52:31.740Z,1.27
2023-02-20T01:55:13.667Z,1.00
2023-02-20T01:57:52.918Z,1.25
2023-02-20T02:00:24.266Z,1.32
2023-02-20T02:03:07.806Z,1.22
2023-02-20T02:05:39.572Z,1.05
2023-02-20T02:08:09.586Z,0.95
2023-02-20T02:11:04.592Z,1.02
2023-02-20T02:16:39.825Z,1.12
2023-02-20T02:19:58.676Z,0.88
2023-02-20T02:23:15.336Z,1.17
2023-02-20T02:25:57.908Z,1.37
2023-02-20T02:29:06.193Z,1.25
2023-02-20T02:32:02.149Z,1.20
2023-02-20T02:34:59.366Z,1.22
2023-02-20T02:40:31.448Z,1.12
2023-02-20T02:43:23.800Z,1.10
2023-02-20T02:45:57.450Z,1.05
2023-02-20T02:48:42.201Z,1.30
2023-02-20T02:51:16.297Z,1.07
2023-02-20T02:54:09.042Z,1.15
2023-02-20T02:56:45.153Z,1.27
2023-02-20T02:59:24.935Z,1.00
2023-02-20T03:01:59.789Z,0.98
2023-02-20T03:04:28.754Z,1.10
2023-02-20T03:07:11.505Z,1.17
2023-02-20T03:09:51.494Z,0.90
2023-02-20T03:12:20.171Z,1.25
2023-02-20T03:15:25.235Z,1.37
2023-02-20T03:18:39.005Z,1.40
2023-02-20T03:21:14.042Z,1.00
2023-02-20T03:23:46.410Z,1.25
2023-02-20T03:26:19.272Z,0.90
2023-02-20T03:29:00.331Z,0.90
2023-02-20T03:31:36.854Z,1.10
2023-02-20T03:34:32.408Z,1.00
2023-02-20T03:37:27.358Z,1.00
2023-02-20T03:40:18.086Z,1.25
2023-02-20T03:43:08.053Z,0.82
2023-02-20T03:45:40.170Z,0.95
2023-02-20T03:48:27.346Z,1.40
2023-02-20T03:50:56.319Z,1.27
2023-02-20T03:53:25.808Z,1.20
2023-02-20T03:55:55.661Z,1.15
2023-02-20T03:58:25.206Z,1.40
2023-02-20T04:00:54.411Z,1.17
2023-02-20T04:03:26.808Z,0.93
2023-02-20T04:05:57.122Z,1.65
2023-02-20T04:08:38.379Z,1.00
2023-02-20T04:11:26.957Z,1.10
2023-02-20T04:13:57.173Z,1.55
2023-02-20T04:16:26.409Z,1.10
2023-02-20T04:18:55.700Z,1.10
2023-02-20T04:21:36.421Z,1.02
2023-02-20T04:24:12.802Z,0.80
2023-02-20T04:26:41.924Z,1.00
2023-02-20T04:29:11.992Z,1.20
2023-02-20T04:31:40.816Z,1.27
2023-02-20T04:34:09.569Z,1.02
2023-02-20T04:36:39.236Z,1.00
2023-02-20T04:39:08.053Z,1.15
2023-02-20T04:41:37.675Z,1.65
2023-02-20T04:44:24.600Z,1.37
2023-02-20T04:46:53.284Z,1.50
2023-02-20T04:49:22.493Z,1.00
2023-02-20T04:51:53.643Z,1.30
2023-02-20T04:54:22.863Z,1.27
2023-02-20T04:56:53.363Z,1.22
2023-02-20T04:59:22.115Z,1.10
2023-02-20T05:01:51.748Z,1.00
2023-02-20T05:04:20.573Z,0.80
2023-02-20T05:06:53.586Z,0.80
2023-02-20T05:09:22.306Z,1.20
2023-02-20T05:11:51.056Z,1.00
2023-02-20T05:14:21.140Z,0.80
2023-02-20T05:16:51.149Z,1.10
2023-02-20T05:19:19.672Z,1.05
2023-02-20T05:22:08.642Z,1.17
2023-02-20T05:24:37.521Z,0.98
2023-02-20T05:27:06.282Z,0.93
2023-02-20T05:29:36.622Z,2.05
2023-02-20T05:32:05.828Z,1.10
2023-02-20T05:34:37.448Z,1.40
2023-02-20T05:37:06.235Z,1.20
2023-02-20T05:39:34.886Z,1.15
2023-02-20T05:42:05.527Z,1.17
2023-02-20T05:44:34.746Z,1.70
2023-02-20T05:47:04.453Z,1.45
2023-02-20T05:49:35.212Z,1.95
2023-02-20T05:52:06.730Z,1.20
2023-02-20T05:54:37.120Z,4.10
2023-02-20T05:57:05.987Z,1.37
2023-02-20T05:59:34.784Z,1.40
2023-02-20T06:02:03.704Z,1.00
2023-02-20T06:04:32.637Z,1.12
2023-02-20T06:07:01.782Z,1.45
2023-02-20T06:09:30.728Z,1.07
2023-02-20T06:12:00.993Z,1.00
2023-02-20T06:14:30.469Z,1.37
2023-02-20T06:16:59.545Z,1.20
2023-02-20T06:19:30.156Z,5.05
2023-02-20T06:21:59.313Z,1.20
2023-02-20T06:24:29.188Z,1.17
2023-02-20T06:26:57.855Z,1.50
2023-02-20T06:29:28.857Z,1.30
2023-02-20T06:31:59.946Z,3.05
2023-02-20T06:34:33.280Z,1.40
2023-02-20T06:37:02.774Z,1.45
2023-02-20T06:39:33.133Z,1.20
2023-02-20T06:42:02.420Z,1.10
2023-02-20T06:44:33.173Z,1.35
2023-02-20T06:47:04.897Z,1.22
2023-02-20T06:49:33.808Z,1.57
2023-02-20T06:52:04.361Z,1.40
2023-02-20T06:54:34.213Z,1.60
2023-02-20T06:57:04.017Z,1.87
2023-02-20T06:59:35.383Z,2.20
2023-02-20T07:02:05.828Z,1.52
2023-02-20T07:04:34.703Z,1.62
2023-02-20T07:07:04.495Z,1.40
2023-02-20T07:09:33.397Z,1.85
2023-02-20T07:12:04.539Z,1.40
2023-02-20T07:14:33.848Z,0.95
2023-02-20T07:17:02.850Z,1.20
2023-02-20T07:19:32.202Z,1.70
2023-02-20T07:22:01.160Z,1.32
2023-02-20T07:24:31.953Z,1.75
2023-02-20T07:27:02.502Z,1.98
2023-02-20T07:29:32.243Z,1.20
2023-02-20T07:32:01.659Z,1.20
2023-02-20T07:34:31.997Z,0.90
2023-02-20T07:37:01.308Z,1.20
2023-02-20T07:39:32.500Z,1.45
2023-02-20T07:42:02.576Z,1.60
2023-02-20T07:44:36.126Z,1.30
2023-02-20T07:47:05.374Z,1.10
2023-02-20T07:49:36.160Z,1.35
2023-02-20T07:52:05.794Z,1.00
2023-02-20T07:54:37.578Z,1.60
2023-02-20T07:57:06.710Z,1.77
2023-02-20T07:59:35.758Z,3.35
2023-02-20T08:02:04.627Z,1.37
2023-02-20T08:04:33.764Z,1.50
2023-02-20T08:07:02.511Z,1.80
2023-02-20T08:09:31.164Z,1.37
2023-02-20T08:11:59.995Z,1.50
2023-02-20T08:14:31.176Z,1.60
2023-02-20T08:16:59.928Z,1.70
2023-02-20T08:19:28.954Z,1.87
2023-02-20T08:21:58.807Z,1.35
2023-02-20T08:24:27.999Z,1.40
2023-02-20T08:26:59.144Z,1.65
2023-02-20T08:29:30.046Z,1.87
2023-02-20T08:32:00.926Z,2.00
2023-02-20T08:34:30.910Z,1.70
2023-02-20T08:37:02.654Z,1.80
2023-02-20T08:39:33.504Z,1.80
2023-02-20T08:42:02.480Z,1.90
2023-02-20T08:44:31.456Z,1.85
2023-02-20T08:47:00.460Z,2.15
2023-02-20T08:49:30.163Z,2.00
2023-02-20T08:52:00.658Z,2.10
2023-02-20T08:54:29.757Z,1.80
2023-02-20T08:56:58.623Z,1.55
2023-02-20T08:59:32.521Z,2.30
2023-02-20T09:02:01.158Z,2.77
2023-02-20T09:04:31.116Z,2.72
2023-02-20T09:06:59.805Z,2.70
2023-02-20T09:09:30.972Z,1.60
2023-02-20T09:12:02.151Z,1.90
2023-02-20T09:14:32.366Z,1.85
2023-02-20T09:17:02.786Z,1.70
2023-02-20T09:19:31.609Z,1.70
2023-02-20T09:22:00.637Z,1.40
2023-02-20T09:24:31.203Z,1.72
2023-02-20T09:27:22.441Z,2.00
2023-02-20T09:29:51.565Z,1.67
2023-02-20T09:32:21.520Z,1.75
2023-02-20T09:34:50.300Z,2.02
2023-02-20T09:37:19.809Z,1.80
2023-02-20T09:39:50.053Z,1.47
2023-02-20T09:42:36.072Z,1.40
2023-02-20T09:45:16.675Z,1.62
2023-02-20T09:48:12.567Z,2.47
2023-02-20T09:50:46.633Z,1.60
2023-02-20T09:53:41.477Z,1.60
2023-02-20T09:56:18.658Z,1.82
2023-02-20T10:01:29.378Z,2.77
2023-02-20T10:04:17.484Z,2.83
2023-02-20T10:06:48.185Z,2.20
2023-02-20T10:09:17.715Z,2.00
2023-02-20T10:12:04.691Z,2.00
2023-02-20T10:14:53.817Z,1.50
2023-02-20T10:17:32.637Z,1.65
2023-02-20T10:23:24.572Z,1.35
2023-02-20T10:25:56.576Z,2.10
2023-02-20T10:28:25.507Z,2.10
2023-02-20T10:31:24.142Z,1.62
2023-02-20T10:34:12.134Z,1.67
2023-02-20T10:36:51.361Z,1.90
2023-02-20T10:39:21.914Z,2.00
2023-02-20T10:41:59.739Z,2.02
2023-02-20T10:44:54.745Z,2.12
2023-02-20T10:47:48.393Z,3.25
2023-02-20T10:50:43.814Z,1.67
2023-02-20T10:53:41.331Z,1.80
2023-02-20T10:56:38.490Z,2.05
2023-02-20T10:59:27.726Z,1.72
2023-02-20T11:01:58.581Z,1.30
2023-02-20T11:04:34.980Z,1.90
2023-02-20T11:07:22.592Z,1.55
2023-02-20T11:09:51.428Z,1.40
2023-02-20T11:12:35.358Z,1.40
2023-02-20T11:15:17.323Z,1.27
2023-02-20T11:17:47.264Z,1.40
2023-02-20T11:20:38.516Z,1.50
2023-02-20T11:23:07.313Z,1.30
2023-02-20T11:25:46.738Z,1.47
2023-02-20T11:28:25.609Z,1.45
2023-02-20T11:31:06.626Z,1.50
2023-02-20T11:33:37.484Z,1.70
2023-02-20T11:36:23.057Z,1.85
2023-02-20T11:39:02.894Z,1.62
2023-02-20T11:41:35.665Z,1.60
2023-02-20T11:44:23.512Z,1.47
2023-02-20T11:50:19.240Z,1.72
2023-02-20T11:53:05.088Z,1.95
2023-02-20T11:55:35.796Z,2.50
2023-02-20T11:58:04.568Z,2.10
2023-02-20T12:00:48.869Z,1.67
2023-02-20T12:03:28.194Z,1.50
2023-02-20T12:05:57.544Z,1.30
2023-02-20T12:09:02.114Z,2.17
2023-02-20T12:11:32.034Z,2.20
2023-02-20T12:14:03.283Z,1.72
2023-02-20T12:16:55.420Z,1.60
2023-02-20T12:19:53.455Z,2.00
2023-02-20T12:22:33.862Z,2.25
2023-02-20T12:25:22.280Z,1.65
2023-02-20T12:28:15.168Z,1.67
2023-02-20T12:31:07.866Z,1.92
2023-02-20T12:33:58.397Z,2.55
2023-02-20T12:36:52.448Z,1.80
2023-02-20T12:39:53.444Z,1.82
2023-02-20T12:42:44.809Z,1.62
2023-02-20T12:45:30.983Z,1.95
2023-02-20T12:48:29.640Z,1.80
2023-02-20T12:51:13.062Z,2.10
2023-02-20T12:53:49.868Z,1.57
2023-02-20T12:56:59.380Z,2.30
2023-02-20T12:59:48.844Z,1.70
2023-02-20T13:02:41.702Z,2.55
2023-02-20T13:05:07.412Z,2.75
2023-02-20T13:07:58.131Z,3.17
2023-02-20T13:10:32.389Z,2.92
2023-02-20T13:13:01.870Z,2.60
2023-02-20T13:16:05.284Z,2.60
2023-02-20T13:18:47.904Z,4.15
2023-02-20T13:21:25.541Z,3.92
2023-02-20T13:24:23.550Z,3.25
2023-02-20T13:26:57.926Z,2.42
2023-02-20T13:29:29.314Z,3.10
2023-02-20T13:32:04.145Z,4.22
2023-02-20T13:34:36.796Z,3.17
2023-02-20T13:37:07.986Z,2.62
2023-02-20T13:39:40.287Z,3.17
2023-02-20T13:42:30.415Z,2.98
2023-02-20T13:44:59.717Z,2.37
2023-02-20T13:47:35.928Z,2.33
2023-02-20T13:50:27.944Z,2.42
2023-02-20T13:52:59.944Z,3.75
2023-02-20T13:55:30.641Z,2.92
2023-02-20T13:58:07.961Z,2.42
2023-02-20T14:00:55.530Z,2.45
2023-02-20T14:03:32.032Z,2.50
2023-02-20T14:06:05.074Z,2.55
2023-02-20T14:08:35.660Z,5.30
2023-02-20T14:11:14.690Z,3.20
2023-02-20T14:13:46.750Z,4.95
2023-02-20T14:16:31.743Z,3.35
2023-02-20T14:19:03.531Z,2.98
2023-02-20T14:21:34.291Z,3.37
2023-02-20T14:24:25.641Z,3.12
2023-02-20T14:27:00.538Z,3.22
2023-02-20T14:29:33.936Z,3.92
2023-02-20T14:32:03.942Z,2.92
2023-02-20T14:35:02.680Z,3.30
2023-02-20T14:38:09.570Z,2.52
2023-02-20T14:40:41.410Z,3.20
2023-02-20T14:43:23.092Z,3.50
2023-02-20T14:46:02.712Z,3.02
2023-02-20T14:48:37.446Z,3.22
2023-02-20T14:51:18.576Z,3.25
2023-02-20T14:53:47.228Z,3.42
2023-02-20T14:56:17.850Z,3.67
2023-02-20T14:58:47.288Z,2.83
2023-02-20T15:01:37.079Z,3.55
2023-02-20T15:04:12.912Z,3.45
2023-02-20T15:06:44.066Z,3.30
2023-02-20T15:09:22.547Z,4.30
2023-02-20T15:11:58.159Z,4.00
2023-02-20T15:14:28.547Z,4.00
2023-02-20T15:17:16.890Z,3.98
2023-02-20T15:19:47.267Z,3.50
2023-02-20T15:22:36.028Z,4.00
2023-02-20T15:25:29.374Z,4.05
2023-02-20T15:28:23.030Z,4.25
2023-02-20T15:31:16.812Z,3.85
2023-02-20T15:33:53.222Z,5.28
2023-02-20T15:36:24.695Z,4.30
2023-02-20T15:38:55.504Z,4.95
2023-02-20T15:41:24.787Z,4.58
2023-02-20T15:43:54.590Z,4.58
2023-02-20T15:46:24.559Z,5.72
2023-02-20T15:48:55.562Z,4.92
2023-02-20T15:51:26.148Z,4.40
2023-02-20T15:53:56.386Z,4.67
2023-02-20T15:56:32.228Z,5.17
2023-02-20T15:59:06.525Z,3.25
2023-02-20T16:01:35.611Z,5.30
2023-02-20T16:04:06.026Z,5.15
2023-02-20T16:06:35.829Z,4.15
2023-02-20T16:09:07.799Z,3.83
2023-02-20T16:11:46.102Z,3.98
2023-02-20T16:14:16.739Z,4.00
2023-02-20T16:16:48.282Z,3.90
2023-02-20T16:19:28.085Z,4.53
2023-02-20T16:21:59.658Z,3.42
2023-02-20T16:24:28.007Z,3.90
2023-02-20T16:26:57.163Z,3.90
2023-02-20T16:29:32.685Z,3.17
2023-02-20T16:32:16.552Z,3.37
2023-02-20T16:34:46.091Z,3.58
2023-02-20T16:37:15.325Z,3.55
2023-02-20T16:39:44.594Z,3.27
2023-02-20T16:42:29.029Z,3.27
2023-02-20T16:44:58.682Z,3.33
2023-02-20T16:47:33.874Z,3.10
2023-02-20T16:50:05.580Z,3.20
2023-02-20T16:52:37.330Z,3.00
2023-02-20T16:55:26.200Z,3.42
2023-02-20T16:57:55.758Z,3.35
2023-02-20T17:00:36.965Z,3.83
2023-02-20T17:03:07.173Z,3.30
2023-02-20T17:05:37.578Z,3.85
2023-02-20T17:08:08.633Z,3.92
2023-02-20T17:10:37.443Z,3.77
2023-02-20T17:13:06.552Z,3.90
2023-02-20T17:15:37.571Z,4.70
2023-02-20T17:18:08.249Z,4.37
2023-02-20T17:20:38.817Z,4.87
2023-02-20T17:23:08.028Z,4.90
2023-02-20T17:25:37.999Z,4.45
2023-02-20T17:28:08.340Z,4.53
2023-02-20T17:30:41.149Z,4.58
2023-02-20T17:33:10.012Z,4.47
2023-02-20T17:35:40.352Z,5.15
2023-02-20T17:38:09.322Z,4.30
2023-02-20T17:40:40.106Z,4.15
2023-02-20T17:43:08.799Z,4.50
2023-02-20T17:45:37.507Z,4.53
2023-02-20T17:48:08.015Z,3.85
2023-02-20T17:50:36.766Z,3.87
2023-02-20T17:53:07.821Z,3.50
2023-02-20T17:55:36.643Z,3.90
2023-02-20T17:58:05.329Z,4.05
2023-02-20T18:00:36.024Z,3.40
2023-02-20T18:03:04.893Z,2.98
2023-02-20T18:05:33.570Z,3.08
2023-02-20T18:08:02.376Z,3.50
2023-02-20T18:10:33.523Z,4.03
2023-02-20T18:13:03.964Z,3.72
2023-02-20T18:15:35.542Z,3.80
2023-02-20T18:18:06.098Z,3.85
2023-02-20T18:20:37.698Z,3.90
2023-02-20T18:23:07.774Z,3.67
2023-02-20T18:25:40.922Z,3.52
2023-02-20T18:28:07.740Z,3.47
2023-02-20T18:30:37.112Z,3.47
2023-02-20T18:33:06.079Z,3.33
2023-02-20T18:35:37.143Z,3.17
2023-02-20T18:38:06.036Z,3.42
2023-02-20T18:40:35.827Z,3.35
2023-02-20T18:43:07.484Z,3.05
2023-02-20T18:45:36.354Z,3.37
2023-02-20T18:48:06.620Z,3.40
2023-02-20T18:50:35.320Z,2.72
2023-02-20T18:53:05.719Z,2.90
2023-02-20T18:55:34.660Z,2.90
2023-02-20T18:58:03.459Z,3.10
2023-02-20T19:00:34.739Z,2.65
2023-02-20T19:03:06.414Z,2.52
2023-02-20T19:05:35.466Z,2.80
2023-02-20T19:08:04.818Z,2.58
2023-02-20T19:10:34.831Z,2.47
2023-02-20T19:13:04.166Z,2.85
2023-02-20T19:15:37.516Z,2.75
2023-02-20T19:18:07.491Z,2.67
2023-02-20T19:20:36.180Z,2.25
2023-02-20T19:23:05.341Z,2.80
2023-02-20T19:25:37.755Z,3.25
2023-02-20T19:28:06.798Z,2.25
2023-02-20T19:30:35.753Z,2.52
2023-02-20T19:33:04.986Z,2.70
2023-02-20T19:35:33.824Z,2.58
2023-02-20T19:38:03.680Z,2.77
2023-02-20T19:40:32.893Z,2.37
2023-02-20T19:43:03.038Z,2.58
2023-02-20T19:45:32.640Z,2.60
2023-02-20T19:48:02.207Z,2.85
2023-02-20T19:50:31.066Z,2.25
2023-02-20T19:53:00.262Z,2.62
2023-02-20T19:55:29.037Z,2.20
2023-02-20T19:57:58.313Z,2.05
2023-02-20T20:00:29.574Z,2.20
2023-02-20T20:02:58.262Z,1.90
2023-02-20T20:05:28.261Z,1.80
2023-02-20T20:07:56.876Z,2.08
2023-02-20T20:10:29.252Z,1.90
2023-02-20T20:12:58.285Z,1.85
2023-02-20T20:15:28.424Z,1.77
2023-02-20T20:18:01.973Z,2.10
2023-02-20T20:20:32.070Z,2.33
2023-02-20T20:23:02.648Z,1.50
2023-02-20T20:25:31.518Z,1.90
2023-02-20T20:28:01.761Z,1.77
2023-02-20T20:30:37.826Z,1.50
2023-02-20T20:33:07.553Z,1.42
2023-02-20T20:35:36.776Z,1.30
2023-02-20T20:38:07.876Z,1.37
2023-02-20T20:40:36.781Z,1.40
2023-02-20T20:43:07.954Z,1.40
2023-02-20T20:45:36.828Z,1.70
2023-02-20T20:48:06.148Z,1.65
2023-02-20T20:50:35.873Z,1.95
2023-02-20T20:53:06.083Z,1.92
2023-02-20T20:55:34.936Z,2.02
2023-02-20T20:58:03.878Z,1.52
2023-02-20T21:00:33.980Z,2.12
2023-02-20T21:03:05.254Z,1.92
2023-02-20T21:05:34.076Z,2.10
2023-02-20T21:08:09.145Z,2.17
2023-02-20T21:10:38.062Z,1.95
2023-02-20T21:13:06.954Z,2.10
2023-02-20T21:15:35.865Z,2.30
2023-02-20T21:18:05.857Z,2.00
2023-02-20T21:20:36.368Z,2.27
2023-02-20T21:23:06.128Z,1.90
2023-02-20T21:25:37.964Z,2.12
2023-02-20T21:28:06.930Z,2.10
2023-02-20T21:30:35.666Z,2.05
2023-02-20T21:33:04.389Z,2.40
2023-02-20T21:35:33.361Z,2.22
2023-02-20T21:38:02.308Z,2.22
2023-02-20T21:40:30.965Z,2.27
2023-02-20T21:43:19.457Z,1.95
2023-02-20T21:45:50.326Z,2.15
2023-02-20T21:48:19.343Z,2.20
2023-02-20T21:50:51.111Z,2.20
2023-02-20T21:53:20.847Z,2.17
2023-02-20T21:55:49.793Z,2.52
2023-02-20T21:58:18.741Z,2.30
2023-02-20T22:00:47.557Z,2.67
2023-02-20T22:03:17.182Z,2.90
2023-02-20T22:05:46.330Z,2.70
2023-02-20T22:08:34.297Z,2.05
2023-02-20T22:11:22.206Z,3.00
2023-02-20T22:14:09.629Z,2.35
2023-02-20T22:16:59.114Z,2.40
2023-02-20T22:19:46.950Z,2.27
2023-02-20T22:22:33.991Z,2.52
2023-02-20T22:25:21.317Z,2.42
2023-02-20T22:28:09.430Z,2.52
2023-02-20T22:33:44.472Z,2.65
2023-02-20T22:36:31.608Z,2.60
2023-02-20T22:39:19.613Z,2.42
2023-02-20T22:42:07.087Z,2.27
2023-02-20T22:44:54.929Z,2.08
2023-02-20T22:47:42.570Z,2.30
2023-02-20T22:50:31.389Z,2.67
2023-02-20T22:53:19.981Z,2.12
2023-02-20T22:56:07.952Z,1.80
2023-02-20T22:58:55.062Z,1.90
2023-02-20T23:01:43.004Z,2.33
2023-02-20T23:04:30.397Z,2.35
2023-02-20T23:07:18.069Z,1.90
2023-02-20T23:12:52.227Z,2.25
2023-02-20T23:15:40.157Z,2.27
2023-02-20T23:18:28.383Z,2.15
2023-02-20T23:21:16.045Z,2.22
2023-02-20T23:24:03.940Z,2.85
2023-02-20T23:29:38.898Z,2.90
2023-02-20T23:32:26.779Z,2.40
2023-02-20T23:35:15.415Z,2.90
2023-02-20T23:38:03.877Z,2.90
2023-02-20T23:40:52.977Z,2.62
2023-02-20T23:43:40.425Z,2.98
2023-02-20T23:46:27.632Z,3.00
2023-02-20T23:49:16.469Z,2.33
2023-02-20T23:52:14.811Z,3.02
2023-02-20T23:54:54.030Z,3.10
2023-02-20T23:57:44.385Z,3.05
